Time;durP1;ratioP1;P1;durP2;ratioP2;P2;SDS_P1;SDS_P2;PMS_P1;PMS_P2;Temp;Humidity;BMP_temperature;BMP_pressure;BME280_temperature;BME280_humidity;BME280_pressure;Samples;Min_cycle;Max_cycle;Signal;HPM_P1;HPM_P2
2021/04/28 00:01:12;;;;;;;4.57;3.10;;;7.40;95.10;;;;;;5113098;28;20043;-57
2021/04/28 00:03:38;;;;;;;4.43;2.88;;;7.40;95.30;;;;;;5112981;28;20039;-57
2021/04/28 00:06:03;;;;;;;11.18;2.63;;;7.50;95.00;;;;;;5094024;28;20044;-57
2021/04/28 00:08:29;;;;;;;8.40;2.30;;;7.40;94.80;;;;;;5113157;28;20156;-57
2021/04/28 00:10:55;;;;;;;5.60;2.70;;;7.40;94.80;;;;;;5112131;28;20038;-57
2021/04/28 00:13:21;;;;;;;5.30;2.80;;;7.40;94.80;;;;;;5112902;28;20058;-57
2021/04/28 00:15:49;;;;;;;5.78;2.92;;;7.30;94.90;;;;;;5112878;28;20044;-57
2021/04/28 00:18:16;;;;;;;7.38;3.10;;;7.30;94.90;;;;;;5112762;28;20066;-57
2021/04/28 00:20:45;;;;;;;6.50;2.40;;;7.30;94.50;;;;;;5112753;28;20074;-57
2021/04/28 00:23:11;;;;;;;5.25;3.03;;;7.20;94.60;;;;;;5112807;28;20048;-57
2021/04/28 00:25:37;;;;;;;7.60;2.65;;;7.20;94.60;;;;;;5112747;28;20047;-57
2021/04/28 00:28:04;;;;;;;4.70;2.50;;;7.20;94.70;;;;;;5112396;28;20055;-57
2021/04/28 00:30:30;;;;;;;9.18;2.53;;;7.20;94.70;;;;;;5112426;28;20131;-57
2021/04/28 00:32:56;;;;;;;6.43;2.60;;;7.10;94.70;;;;;;5094288;28;20133;-57
2021/04/28 00:35:23;;;;;;;3.13;2.33;;;7.10;94.50;;;;;;5112425;28;20134;-57
2021/04/28 00:37:49;;;;;;;4.07;2.45;;;7.10;94.40;;;;;;5112636;28;20055;-57
2021/04/28 00:40:28;;;;;;;5.15;2.33;;;7.10;94.20;;;;;;5112677;28;20044;-57
2021/04/28 00:42:55;;;;;;;2.53;2.30;;;7.00;94.00;;;;;;5094327;28;21938;-57
2021/04/28 00:45:24;;;;;;;5.18;2.50;;;7.00;94.00;;;;;;5112448;28;20040;-57
2021/04/28 00:47:50;;;;;;;6.78;2.45;;;7.00;93.80;;;;;;5112387;28;20134;-57
2021/04/28 00:50:24;;;;;;;3.05;2.10;;;7.00;93.80;;;;;;5112513;28;20044;-57
2021/04/28 00:52:50;;;;;;;5.15;2.30;;;7.00;93.50;;;;;;5112263;28;20447;-58
2021/04/28 00:55:17;;;;;;;4.13;2.63;;;7.00;93.90;;;;;;5112250;28;20036;-57
2021/04/28 00:57:42;;;;;;;2.75;2.17;;;6.90;93.90;;;;;;5112131;28;20044;-57
2021/04/28 01:00:14;;;;;;;4.07;2.30;;;6.90;94.00;;;;;;5112595;28;20046;-57
2021/04/28 01:02:39;;;;;;;5.85;2.30;;;6.90;93.90;;;;;;5112308;28;20105;-57
2021/04/28 01:05:06;;;;;;;6.22;2.40;;;6.90;93.80;;;;;;5112608;28;20403;-57
2021/04/28 01:07:33;;;;;;;6.78;2.33;;;6.90;94.10;;;;;;5112501;28;20054;-57
2021/04/28 01:10:00;;;;;;;6.45;2.33;;;6.80;94.10;;;;;;5112175;28;20043;-57
2021/04/28 01:12:28;;;;;;;3.42;2.28;;;6.80;94.10;;;;;;5112430;28;20039;-57
2021/04/28 01:14:55;;;;;;;2.92;2.20;;;6.80;94.20;;;;;;5112224;28;20121;-57
2021/04/28 01:17:21;;;;;;;4.55;2.30;;;6.70;94.10;;;;;;5112077;28;20101;-57
2021/04/28 01:19:47;;;;;;;5.63;2.50;;;6.70;94.30;;;;;;5112037;28;20043;-57
2021/04/28 01:22:14;;;;;;;4.55;2.67;;;6.70;94.30;;;;;;5114642;28;20123;-57
2021/04/28 01:24:40;;;;;;;3.42;2.40;;;6.70;94.40;;;;;;5116082;28;20040;-57
2021/04/28 01:27:15;;;;;;;5.00;2.13;;;6.60;94.30;;;;;;5113933;28;20469;-57
2021/04/28 01:29:43;;;;;;;4.15;2.33;;;6.50;94.40;;;;;;5095727;28;20040;-57
2021/04/28 01:32:13;;;;;;;3.20;2.28;;;6.50;94.30;;;;;;5095309;28;20044;-57
2021/04/28 01:34:40;;;;;;;4.15;3.00;;;6.60;94.20;;;;;;5095491;28;20044;-57
2021/04/28 01:37:07;;;;;;;6.13;2.78;;;6.50;94.00;;;;;;5095712;28;20043;-57
2021/04/28 01:39:35;;;;;;;4.47;2.10;;;6.50;94.20;;;;;;5095238;28;20047;-57
2021/04/28 01:42:00;;;;;;;4.35;2.25;;;6.50;94.20;;;;;;5095622;28;20070;-57
2021/04/28 01:44:27;;;;;;;3.58;2.30;;;6.50;94.40;;;;;;5095068;28;20119;-57
2021/04/28 01:46:53;;;;;;;2.53;2.15;;;6.50;94.20;;;;;;5095490;28;20074;-57
2021/04/28 01:49:20;;;;;;;4.05;2.25;;;6.50;94.10;;;;;;5095275;28;20044;-57
2021/04/28 01:51:47;;;;;;;2.75;2.20;;;6.40;94.10;;;;;;5095130;28;20043;-57
2021/04/28 01:54:18;;;;;;;4.15;2.30;;;6.40;94.10;;;;;;5094992;28;20078;-57
2021/04/28 01:56:47;;;;;;;8.55;2.33;;;6.50;94.00;;;;;;5094971;28;20060;-57
2021/04/28 01:59:17;;;;;;;4.20;2.67;;;6.40;93.90;;;;;;5076708;28;20044;-57
2021/04/28 02:01:49;;;;;;;3.00;2.35;;;6.40;93.80;;;;;;5094838;28;20082;-57
2021/04/28 02:04:16;;;;;;;4.60;2.30;;;6.40;93.70;;;;;;5095163;28;20445;-57
2021/04/28 02:06:43;;;;;;;3.00;2.17;;;6.40;93.60;;;;;;5094892;28;20514;-57
2021/04/28 02:09:09;;;;;;;4.15;2.50;;;6.30;93.70;;;;;;5094857;28;20048;-56
2021/04/28 02:11:35;;;;;;;6.30;2.50;;;6.40;93.60;;;;;;5094841;28;20106;-57
2021/04/28 02:14:02;;;;;;;3.70;2.10;;;6.30;93.60;;;;;;5094551;28;20035;-57
2021/04/28 02:16:31;;;;;;;5.15;2.72;;;6.30;93.60;;;;;;5095281;28;20102;-57
2021/04/28 02:18:57;;;;;;;6.70;2.70;;;6.30;93.10;;;;;;5094840;28;20060;-57
2021/04/28 02:21:24;;;;;;;8.60;2.47;;;6.30;93.20;;;;;;5094839;28;20048;-57
2021/04/28 02:23:50;;;;;;;7.13;2.83;;;6.30;93.20;;;;;;5094419;28;20449;-57
2021/04/28 02:26:16;;;;;;;2.88;2.38;;;6.30;93.10;;;;;;5094354;28;20040;-57
2021/04/28 02:28:42;;;;;;;5.50;2.58;;;6.20;93.20;;;;;;5096303;28;20060;-57
2021/04/28 02:31:08;;;;;;;6.68;2.85;;;6.20;93.40;;;;;;5094478;28;20055;-57
2021/04/28 02:33:37;;;;;;;4.82;2.80;;;6.20;93.50;;;;;;5093375;28;20043;-57
2021/04/28 02:36:04;;;;;;;4.80;2.70;;;6.20;93.80;;;;;;5094240;28;20051;-57
2021/04/28 02:38:39;;;;;;;2.63;2.40;;;6.20;93.80;;;;;;5094098;28;20032;-57
2021/04/28 02:41:06;;;;;;;8.43;2.45;;;6.10;94.00;;;;;;5075214;28;20456;-56
2021/04/28 02:43:37;;;;;;;5.20;3.10;;;6.10;94.00;;;;;;5094103;28;20058;-57
2021/04/28 02:46:04;;;;;;;4.60;2.80;;;6.10;94.40;;;;;;5093940;28;20093;-57
2021/04/28 02:48:31;;;;;;;4.75;2.38;;;6.10;94.60;;;;;;5093751;28;20478;-57
2021/04/28 02:50:57;;;;;;;4.90;2.60;;;6.10;94.40;;;;;;5093606;28;20063;-56
2021/04/28 02:53:25;;;;;;;5.22;2.90;;;6.10;94.70;;;;;;5094143;28;20093;-57
2021/04/28 02:55:58;;;;;;;4.55;3.15;;;6.00;94.80;;;;;;5094105;28;20044;-57
2021/04/28 02:58:26;;;;;;;5.78;3.42;;;6.00;94.90;;;;;;5093921;28;20466;-56
2021/04/28 03:00:57;;;;;;;4.97;3.38;;;6.00;95.00;;;;;;5093558;28;20036;-56
2021/04/28 03:03:22;;;;;;;6.25;2.72;;;6.00;94.90;;;;;;5093837;28;20052;-57
2021/04/28 03:05:50;;;;;;;5.88;3.33;;;6.00;95.30;;;;;;5093811;28;20109;-56
2021/04/28 03:08:17;;;;;;;4.22;3.00;;;6.00;95.10;;;;;;5093618;28;20501;-57
2021/04/28 03:10:44;;;;;;;7.40;2.80;;;6.00;95.20;;;;;;5093734;28;20044;-57
2021/04/28 03:13:10;;;;;;;7.88;2.80;;;5.90;95.20;;;;;;5093561;28;20120;-57
2021/04/28 03:15:36;;;;;;;4.57;2.60;;;5.90;95.40;;;;;;5093299;28;20603;-57
2021/04/28 03:18:02;;;;;;;4.07;2.70;;;5.90;95.20;;;;;;5093461;28;20067;-57
2021/04/28 03:20:29;;;;;;;6.13;2.80;;;5.90;95.30;;;;;;5093447;28;20478;-56
2021/04/28 03:22:55;;;;;;;11.85;2.40;;;5.90;95.30;;;;;;5093345;28;20040;-57
2021/04/28 03:25:21;;;;;;;4.03;2.80;;;5.90;95.10;;;;;;5093223;28;20062;-57
2021/04/28 03:27:47;;;;;;;4.50;2.60;;;5.90;95.30;;;;;;5093218;28;20059;-57
2021/04/28 03:30:13;;;;;;;4.03;2.75;;;5.90;95.40;;;;;;5092920;28;20068;-57
2021/04/28 03:32:39;;;;;;;5.90;2.60;;;5.90;95.20;;;;;;5092993;28;20040;-56
2021/04/28 03:35:06;;;;;;;4.25;2.67;;;5.90;95.20;;;;;;5092808;28;20066;-57
2021/04/28 03:37:31;;;;;;;5.88;2.97;;;5.90;95.20;;;;;;5092821;28;20043;-57
2021/04/28 03:39:57;;;;;;;4.80;2.58;;;5.90;95.20;;;;;;5093035;28;20512;-57
2021/04/28 03:42:23;;;;;;;4.85;3.20;;;5.90;95.10;;;;;;5092929;28;20546;-57
2021/04/28 03:44:52;;;;;;;5.68;3.08;;;5.90;95.00;;;;;;5091702;28;20105;-57
2021/04/28 03:47:20;;;;;;;5.22;3.15;;;5.90;95.10;;;;;;5093002;28;20040;-57
2021/04/28 03:49:46;;;;;;;5.18;2.90;;;5.90;95.20;;;;;;5092988;28;20067;-57
2021/04/28 03:52:12;;;;;;;4.15;2.90;;;5.90;94.90;;;;;;5092505;28;20505;-57
2021/04/28 03:54:38;;;;;;;4.30;2.83;;;5.90;95.30;;;;;;5092662;28;20050;-57
2021/04/28 03:57:05;;;;;;;4.40;2.75;;;5.90;95.00;;;;;;5092645;28;20044;-57
2021/04/28 03:59:31;;;;;;;6.55;3.30;;;5.90;95.00;;;;;;5092368;28;20044;-57
2021/04/28 04:01:57;;;;;;;6.65;2.97;;;5.90;94.90;;;;;;5092348;28;20098;-57
2021/04/28 04:04:22;;;;;;;4.32;3.10;;;5.90;95.00;;;;;;5092733;28;20047;-56
2021/04/28 04:06:48;;;;;;;5.90;3.28;;;5.90;95.30;;;;;;5092872;28;20052;-57
2021/04/28 04:09:14;;;;;;;5.85;3.15;;;5.90;95.40;;;;;;5092295;28;20048;-56
2021/04/28 04:11:39;;;;;;;4.57;2.63;;;5.90;95.40;;;;;;5092564;28;20071;-57
2021/04/28 04:14:05;;;;;;;4.57;2.90;;;6.00;95.20;;;;;;5092539;28;20505;-56
2021/04/28 04:16:31;;;;;;;4.53;3.30;;;5.90;95.20;;;;;;5092319;28;20068;-57
2021/04/28 04:18:57;;;;;;;4.93;2.88;;;5.90;95.00;;;;;;5092339;28;20184;-57
2021/04/28 04:21:22;;;;;;;10.55;3.10;;;5.90;95.00;;;;;;5092308;28;20040;-57
2021/04/28 04:23:48;;;;;;;3.60;2.70;;;5.90;95.00;;;;;;5092101;28;20059;-57
2021/04/28 04:26:15;;;;;;;3.63;2.67;;;6.00;95.10;;;;;;5092303;28;20048;-57
2021/04/28 04:28:41;;;;;;;5.20;2.90;;;6.00;95.00;;;;;;5092087;28;20374;-57
2021/04/28 04:31:07;;;;;;;6.63;3.20;;;6.10;94.70;;;;;;5092372;28;20054;-57
2021/04/28 04:33:33;;;;;;;6.82;3.17;;;6.10;94.40;;;;;;5092447;28;20123;-57
2021/04/28 04:35:58;;;;;;;4.45;3.22;;;6.10;94.80;;;;;;5092351;28;20051;-56
2021/04/28 04:38:25;;;;;;;10.43;2.90;;;6.10;94.70;;;;;;5092423;28;20138;-57
2021/04/28 04:40:51;;;;;;;5.63;3.17;;;6.10;94.30;;;;;;5091893;28;20478;-56
2021/04/28 04:43:16;;;;;;;5.07;2.80;;;6.10;94.20;;;;;;5092028;28;20032;-56
2021/04/28 04:45:42;;;;;;;4.97;2.58;;;6.10;94.20;;;;;;5092048;28;20079;-57
2021/04/28 04:48:10;;;;;;;4.80;3.10;;;6.10;94.10;;;;;;5092061;28;20044;-57
2021/04/28 04:50:36;;;;;;;6.03;2.97;;;6.10;94.00;;;;;;5092062;28;20066;-56
2021/04/28 04:53:03;;;;;;;4.20;2.50;;;6.20;93.80;;;;;;5092088;28;20044;-56
2021/04/28 04:55:29;;;;;;;5.57;3.05;;;6.20;93.90;;;;;;5091925;28;20158;-56
2021/04/28 04:57:54;;;;;;;7.22;2.88;;;6.20;93.90;;;;;;5095694;28;20118;-56
2021/04/28 05:00:21;;;;;;;4.90;2.65;;;6.30;93.70;;;;;;5096011;28;20036;-56
2021/04/28 05:02:47;;;;;;;6.97;2.88;;;6.30;93.40;;;;;;5096075;28;20047;-57
2021/04/28 05:05:13;;;;;;;5.63;2.80;;;6.30;93.40;;;;;;5096263;28;20427;-57
2021/04/28 05:07:39;;;;;;;4.03;3.03;;;6.30;93.30;;;;;;5096108;28;20047;-56
2021/04/28 05:10:08;;;;;;;5.32;3.00;;;6.30;92.90;;;;;;5096023;28;20146;-57
2021/04/28 05:12:34;;;;;;;3.97;3.03;;;6.40;93.30;;;;;;5096276;28;20048;-56
2021/04/28 05:15:00;;;;;;;4.72;3.50;;;6.40;93.20;;;;;;5077988;28;20047;-56
2021/04/28 05:17:26;;;;;;;6.32;3.15;;;6.40;93.10;;;;;;5096125;28;20073;-56
2021/04/28 05:19:52;;;;;;;5.90;2.88;;;6.40;93.40;;;;;;5096057;28;20474;-57
2021/04/28 05:22:22;;;;;;;6.40;2.78;;;6.40;93.00;;;;;;5095552;28;20113;-57
2021/04/28 05:24:48;;;;;;;4.20;2.80;;;6.50;93.20;;;;;;5095786;28;20044;-56
2021/04/28 05:27:16;;;;;;;7.03;3.20;;;6.60;92.90;;;;;;5096389;28;20059;-57
2021/04/28 05:29:42;;;;;;;6.28;3.10;;;6.70;92.80;;;;;;5116287;28;20465;-56
2021/04/28 05:32:08;;;;;;;8.38;2.83;;;6.80;93.10;;;;;;5115813;28;20093;-57
2021/04/28 05:34:34;;;;;;;4.78;3.00;;;6.90;92.60;;;;;;5116026;28;20477;-57
2021/04/28 05:36:59;;;;;;;5.72;2.97;;;7.00;93.00;;;;;;5115903;28;20044;-57
2021/04/28 05:39:25;;;;;;;5.25;2.92;;;6.90;92.90;;;;;;5115607;28;20047;-57
2021/04/28 05:41:52;;;;;;;7.03;2.97;;;6.90;93.00;;;;;;5115715;28;20127;-57
2021/04/28 05:44:19;;;;;;;5.82;2.97;;;7.00;92.80;;;;;;5097280;28;20262;-57
2021/04/28 05:46:47;;;;;;;4.80;3.05;;;7.10;92.80;;;;;;5115711;28;20058;-57
2021/04/28 05:49:14;;;;;;;4.13;2.60;;;7.20;92.40;;;;;;5115559;28;20051;-57
2021/04/28 05:51:43;;;;;;;6.00;3.03;;;7.30;92.00;;;;;;5115540;28;20081;-57
2021/04/28 05:54:10;;;;;;;7.45;3.15;;;7.40;92.40;;;;;;5115363;28;20126;-57
2021/04/28 05:56:39;;;;;;;5.03;2.90;;;7.50;91.70;;;;;;5115784;28;20446;-57
2021/04/28 05:59:06;;;;;;;7.00;3.20;;;7.60;91.40;;;;;;5115645;28;20039;-57
2021/04/28 06:01:31;;;;;;;6.07;2.97;;;7.70;91.00;;;;;;5115241;28;20473;-57
2021/04/28 06:03:57;;;;;;;9.35;3.05;;;7.80;91.00;;;;;;5115094;28;20039;-57
2021/04/28 06:06:24;;;;;;;6.78;3.28;;;7.90;90.70;;;;;;5115080;28;20483;-57
2021/04/28 06:08:50;;;;;;;8.75;3.35;;;8.10;90.80;;;;;;5114194;28;20051;-56
2021/04/28 06:11:17;;;;;;;7.18;3.13;;;8.20;90.60;;;;;;5115331;28;20039;-57
2021/04/28 06:13:44;;;;;;;4.82;3.00;;;8.30;90.30;;;;;;5115099;28;20096;-57
2021/04/28 06:16:10;;;;;;;7.10;3.00;;;8.50;89.90;;;;;;5114940;28;20122;-57
2021/04/28 06:18:37;;;;;;;5.63;3.67;;;8.50;88.40;;;;;;5114780;28;20161;-57
2021/04/28 06:21:04;;;;;;;12.02;3.42;;;8.70;88.40;;;;;;5114747;28;20043;-57
2021/04/28 06:23:30;;;;;;;5.95;3.33;;;8.80;87.90;;;;;;5114627;28;20453;-57
2021/04/28 06:25:55;;;;;;;5.20;3.05;;;9.00;87.60;;;;;;5114700;28;20127;-57
2021/04/28 06:28:22;;;;;;;5.53;3.17;;;9.40;87.80;;;;;;5114404;28;20496;-57
2021/04/28 06:30:47;;;;;;;11.50;3.38;;;9.40;85.50;;;;;;5114806;28;20043;-57
2021/04/28 06:33:13;;;;;;;6.47;3.30;;;9.60;86.50;;;;;;5114825;28;20071;-58
2021/04/28 06:35:39;;;;;;;14.50;3.08;;;9.80;86.50;;;;;;5114430;28;20045;-56
2021/04/28 06:38:04;;;;;;;11.10;3.20;;;10.20;86.10;;;;;;5114391;28;20469;-57
2021/04/28 06:40:30;;;;;;;10.60;3.85;;;10.50;83.30;;;;;;5114462;28;20040;-57
2021/04/28 06:42:56;;;;;;;5.03;3.20;;;10.50;83.00;;;;;;5114324;28;20074;-57
2021/04/28 06:45:21;;;;;;;5.63;3.47;;;10.80;83.70;;;;;;5114394;28;20073;-56
2021/04/28 06:47:47;;;;;;;8.30;3.55;;;10.80;82.00;;;;;;5114331;28;20118;-56
2021/04/28 06:50:13;;;;;;;7.40;3.60;;;10.90;82.10;;;;;;5114425;28;20068;-56
2021/04/28 06:52:42;;;;;;;5.18;3.28;;;11.00;81.40;;;;;;5114286;28;20036;-56
2021/04/28 06:55:09;;;;;;;8.30;3.47;;;11.20;81.00;;;;;;5113972;28;20504;-56
2021/04/28 06:57:35;;;;;;;4.65;3.30;;;11.30;78.10;;;;;;5113812;28;20042;-57
2021/04/28 07:00:02;;;;;;;6.72;3.60;;;11.30;79.40;;;;;;5114103;28;20043;-56
2021/04/28 07:02:27;;;;;;;10.10;3.80;;;11.50;77.80;;;;;;5114045;28;20048;-56
2021/04/28 07:04:53;;;;;;;6.78;3.90;;;11.60;76.90;;;;;;5113879;28;20055;-56
2021/04/28 07:07:19;;;;;;;7.32;3.53;;;11.70;77.20;;;;;;5113639;28;20126;-56
2021/04/28 07:09:44;;;;;;;7.07;3.97;;;11.70;75.50;;;;;;5113969;28;20469;-56
2021/04/28 07:12:10;;;;;;;6.72;3.47;;;11.90;76.40;;;;;;5113853;28;20123;-57
2021/04/28 07:14:36;;;;;;;6.57;3.22;;;12.10;74.80;;;;;;5113873;28;20438;-56
2021/04/28 07:17:01;;;;;;;6.45;3.90;;;12.40;77.60;;;;;;5113606;28;20047;-56
2021/04/28 07:19:27;;;;;;;7.63;3.30;;;12.60;74.10;;;;;;5113590;28;20039;-57
2021/04/28 07:21:53;;;;;;;9.63;3.08;;;13.00;74.80;;;;;;5113394;28;20416;-56
2021/04/28 07:24:18;;;;;;;11.68;3.67;;;13.00;73.30;;;;;;5078101;28;20055;-56
2021/04/28 07:26:44;;;;;;;8.18;3.30;;;13.40;69.70;;;;;;5113533;28;20119;-57
2021/04/28 07:29:11;;;;;;;5.65;3.50;;;13.70;70.40;;;;;;5113037;28;20075;-56
2021/04/28 07:31:38;;;;;;;5.18;3.70;;;13.60;68.60;;;;;;5113244;28;20039;-56
2021/04/28 07:34:04;;;;;;;6.53;3.90;;;13.60;69.00;;;;;;5113473;28;20092;-56
2021/04/28 07:36:30;;;;;;;7.05;3.45;;;13.80;70.00;;;;;;5113094;28;20044;-56
2021/04/28 07:38:57;;;;;;;9.27;3.67;;;13.90;67.40;;;;;;5078384;28;20439;-57
2021/04/28 07:41:23;;;;;;;10.95;3.75;;;13.90;66.50;;;;;;5113314;28;20431;-57
2021/04/28 07:43:49;;;;;;;4.05;3.17;;;14.50;68.40;;;;;;5113253;28;20066;-57
2021/04/28 07:46:14;;;;;;;7.95;3.60;;;14.80;67.40;;;;;;5113130;28;20118;-57
2021/04/28 07:48:40;;;;;;;9.90;3.80;;;15.20;64.60;;;;;;5112988;28;20028;-57
2021/04/28 07:51:06;;;;;;;6.90;3.90;;;15.60;64.40;;;;;;5113044;28;20453;-57
2021/04/28 07:53:32;;;;;;;6.50;3.55;;;15.40;62.10;;;;;;5112933;28;20047;-57
2021/04/28 07:55:57;;;;;;;7.07;4.20;;;15.40;62.10;;;;;;5113094;28;20040;-57
2021/04/28 07:58:23;;;;;;;7.97;3.78;;;15.50;61.10;;;;;;5112685;28;20375;-57
2021/04/28 08:00:49;;;;;;;12.52;5.10;;;15.50;60.60;;;;;;5112710;28;20036;-57
2021/04/28 08:03:15;;;;;;;9.27;3.92;;;15.20;59.30;;;;;;5112771;28;20052;-56
2021/04/28 08:05:40;;;;;;;7.65;4.00;;;15.70;60.50;;;;;;5112537;28;20036;-57
2021/04/28 08:08:06;;;;;;;9.82;4.95;;;15.70;58.40;;;;;;5112893;28;20081;-57
2021/04/28 08:10:33;;;;;;;6.00;3.28;;;15.80;59.90;;;;;;5112645;28;20390;-57
2021/04/28 08:12:59;;;;;;;8.05;3.40;;;16.30;60.70;;;;;;5112658;28;20054;-57
2021/04/28 08:15:25;;;;;;;6.78;3.63;;;16.90;59.40;;;;;;5112828;28;20048;-57
2021/04/28 08:17:51;;;;;;;6.65;3.97;;;16.60;58.80;;;;;;5112485;28;20169;-58
2021/04/28 08:20:17;;;;;;;6.97;4.00;;;17.20;58.80;;;;;;5112498;28;20043;-58
2021/04/28 08:22:43;;;;;;;6.65;4.25;;;16.80;56.20;;;;;;5112327;28;20115;-58
2021/04/28 08:25:12;;;;;;;6.10;3.97;;;16.80;56.70;;;;;;5112347;28;20508;-57
2021/04/28 08:27:38;;;;;;;11.93;3.80;;;17.10;57.00;;;;;;5112075;28;20047;-57
2021/04/28 08:30:07;;;;;;;8.32;4.10;;;17.40;56.50;;;;;;5112402;28;20051;-57
2021/04/28 08:32:33;;;;;;;10.32;4.10;;;17.20;54.80;;;;;;5111759;28;20410;-57
2021/04/28 08:34:58;;;;;;;8.15;4.38;;;17.40;55.00;;;;;;5112090;28;20126;-57
2021/04/28 08:37:24;;;;;;;9.68;4.93;;;16.90;54.30;;;;;;5112303;28;20067;-58
2021/04/28 08:39:50;;;;;;;9.50;4.90;;;17.50;56.60;;;;;;5112275;28;20079;-58
2021/04/28 08:42:19;;;;;;;7.72;4.80;;;17.40;54.40;;;;;;5112244;28;20070;-58
2021/04/28 08:44:45;;;;;;;;;;;17.10;53.20;;;;;;5112347;28;20139;-57
2021/04/28 08:47:13;;;;;;;5.82;4.07;;;17.20;52.50;;;;;;5112228;28;19920;-57
2021/04/28 08:49:38;;;;;;;7.80;4.55;;;17.10;54.10;;;;;;5112118;28;20039;-58
2021/04/28 08:52:05;;;;;;;6.78;4.40;;;17.00;54.80;;;;;;5112403;28;20127;-57
2021/04/28 08:54:31;;;;;;;8.45;5.00;;;17.00;55.10;;;;;;5112052;28;20055;-58
2021/04/28 08:56:58;;;;;;;6.72;4.15;;;17.30;54.20;;;;;;5111907;28;20035;-58
2021/04/28 08:59:25;;;;;;;10.23;4.95;;;17.20;52.10;;;;;;5093938;28;20039;-58
2021/04/28 09:01:51;;;;;;;7.95;4.63;;;17.20;54.70;;;;;;5111805;28;20084;-58
2021/04/28 09:04:19;;;;;;;9.05;4.03;;;17.50;53.30;;;;;;5111814;28;20431;-58
2021/04/28 09:06:45;;;;;;;12.63;5.00;;;17.50;53.90;;;;;;5112285;28;20036;-57
2021/04/28 09:09:19;;;;;;;9.65;5.13;;;17.50;53.10;;;;;;5111953;28;20474;-57
2021/04/28 09:11:49;;;;;;;8.52;4.43;;;17.60;52.70;;;;;;5111831;28;20527;-58
2021/04/28 09:14:22;;;;;;;6.97;4.40;;;17.90;53.60;;;;;;5111932;28;20051;-58
2021/04/28 09:16:54;;;;;;;6.00;4.30;;;18.10;53.80;;;;;;5112208;28;20134;-58
2021/04/28 09:19:28;;;;;;;8.50;4.88;;;18.00;52.00;;;;;;5111924;28;20043;-58
2021/04/28 09:22:10;;;;;;;8.40;5.45;;;18.10;50.60;;;;;;5111929;28;20078;-58
2021/04/28 09:24:50;;;;;;;6.53;4.70;;;18.10;51.40;;;;;;5111583;28;20049;-57
2021/04/28 09:27:48;;;;;;;6.30;4.50;;;18.40;49.50;;;;;;5111686;28;20043;-58
2021/04/28 09:30:24;;;;;;;10.23;5.03;;;18.40;48.80;;;;;;5009585;28;20057;-58
2021/04/28 09:33:01;;;;;;;8.18;5.10;;;18.20;49.70;;;;;;5009262;28;20042;-59
2021/04/28 09:35:27;;;;;;;7.68;5.07;;;18.20;49.20;;;;;;5009189;28;20149;-58
2021/04/28 09:38:00;;;;;;;6.95;4.53;;;18.30;50.70;;;;;;5009424;28;20057;-58
2021/04/28 09:40:44;;;;;;;7.55;4.90;;;18.90;48.80;;;;;;5009207;28;20048;-59
2021/04/28 09:43:11;;;;;;;21.38;5.10;;;18.80;46.90;;;;;;5011266;28;20117;-59
2021/04/28 09:45:44;;;;;;;8.23;5.18;;;18.60;48.20;;;;;;5012752;28;20116;-58
2021/04/28 09:48:21;;;;;;;10.45;5.35;;;18.50;48.00;;;;;;5012824;28;20045;-59
2021/04/28 09:50:48;;;;;;;6.63;4.80;;;18.50;48.10;;;;;;5012902;28;20451;-58
2021/04/28 09:53:26;;;;;;;9.02;5.07;;;18.70;48.00;;;;;;5012758;28;20141;-59
2021/04/28 09:55:52;;;;;;;10.25;5.70;;;18.70;47.80;;;;;;5012525;28;20042;-58
2021/04/28 09:58:21;;;;;;;6.82;5.00;;;18.70;47.60;;;;;;5012609;28;20048;-58
2021/04/28 10:01:00;;;;;;;6.47;4.80;;;18.60;46.70;;;;;;5012535;28;20091;-59
2021/04/28 10:03:43;;;;;;;5.73;4.67;;;18.50;48.00;;;;;;5012543;28;20076;-58
2021/04/28 10:06:09;;;;;;;5.97;4.85;;;18.70;48.00;;;;;;5078679;28;20434;-59
2021/04/28 10:08:35;;;;;;;10.50;5.15;;;18.30;47.30;;;;;;5114779;28;20556;-59
2021/04/28 10:11:00;;;;;;;9.88;4.70;;;18.20;47.40;;;;;;5114824;28;20088;-59
2021/04/28 10:13:26;;;;;;;7.38;5.32;;;18.50;47.60;;;;;;5114924;28;20401;-59
2021/04/28 10:15:52;;;;;;;6.95;4.35;;;18.60;47.30;;;;;;5114798;28;20040;-58
2021/04/28 10:18:21;;;;;;;7.65;4.60;;;18.60;46.30;;;;;;5114667;28;20044;-60
2021/04/28 10:20:49;;;;;;;6.80;4.63;;;18.60;45.90;;;;;;5114378;28;20047;-58
2021/04/28 10:23:17;;;;;;;7.25;4.53;;;18.80;45.60;;;;;;5114288;28;20040;-59
2021/04/28 10:25:48;;;;;;;6.65;4.15;;;19.00;44.40;;;;;;5114576;28;20068;-59
2021/04/28 10:28:14;;;;;;;6.13;4.20;;;18.90;41.40;;;;;;5114207;28;20047;-59
2021/04/28 10:30:46;;;;;;;5.72;4.57;;;18.80;43.90;;;;;;5114438;28;20039;-59
2021/04/28 10:33:20;;;;;;;7.18;4.60;;;19.20;45.30;;;;;;5114485;28;20114;-59
2021/04/28 10:35:47;;;;;;;7.65;5.35;;;18.90;42.20;;;;;;5114211;28;20470;-59
2021/04/28 10:38:19;;;;;;;6.40;4.60;;;18.80;42.90;;;;;;5114288;28;20039;-59
2021/04/28 10:40:45;;;;;;;8.77;4.93;;;19.00;42.70;;;;;;5114168;28;20035;-60
2021/04/28 10:43:11;;;;;;;7.57;4.47;;;18.80;42.20;;;;;;5114152;28;20043;-58
2021/04/28 10:45:38;;;;;;;4.88;4.35;;;18.90;43.60;;;;;;5114132;28;20477;-59
2021/04/28 10:48:07;;;;;;;7.20;4.75;;;19.40;44.90;;;;;;5113963;28;20039;-59
2021/04/28 10:50:48;;;;;;;12.93;4.97;;;19.20;42.00;;;;;;5096333;28;20441;-59
2021/04/28 10:53:21;;;;;;;5.90;5.15;;;19.10;41.30;;;;;;5113925;28;20435;-59
2021/04/28 10:55:54;;;;;;;5.80;4.70;;;19.10;43.00;;;;;;5113450;28;20043;-58
2021/04/28 10:58:29;;;;;;;8.32;4.45;;;19.20;43.20;;;;;;5114239;28;20481;-59
2021/04/28 11:00:58;;;;;;;7.90;4.60;;;19.20;41.90;;;;;;5114212;28;20085;-58
2021/04/28 11:03:34;;;;;;;6.55;4.57;;;18.90;43.00;;;;;;5114059;28;20064;-59
2021/04/28 11:09:07;;;;;;;8.90;5.10;;;19.70;43.60;;;;;;5095537;28;20039;-59
2021/04/28 11:11:34;;;;;;;8.07;4.97;;;19.50;43.50;;;;;;5095127;28;20430;-59
2021/04/28 11:14:14;;;;;;;7.68;4.53;;;19.50;43.70;;;;;;5113579;28;20039;-59
2021/04/28 11:16:48;;;;;;;10.40;5.97;;;20.00;43.00;;;;;;5095318;28;20541;-59
2021/04/28 11:19:37;;;;;;;7.22;5.28;;;19.50;41.30;;;;;;5113299;28;20046;-59
2021/04/28 11:22:03;;;;;;;9.00;5.22;;;19.50;42.90;;;;;;5113571;28;20046;-59
2021/04/28 11:24:58;;;;;;;5.30;4.78;;;19.50;43.00;;;;;;5113393;28;20040;-58
2021/04/28 11:27:53;;;;;;;7.05;5.05;;;19.60;42.70;;;;;;5113581;28;20039;-58
2021/04/28 11:30:19;;;;;;;6.30;5.30;;;19.70;42.00;;;;;;5112828;28;20138;-59
2021/04/28 11:33:07;;;;;;;11.18;5.70;;;19.60;42.90;;;;;;5113189;28;20055;-58
2021/04/28 11:35:34;;;;;;;16.48;4.97;;;19.70;42.00;;;;;;5110661;28;20466;-59
2021/04/28 11:38:04;;;;;;;6.25;5.30;;;19.90;42.40;;;;;;5107742;28;20040;-54
2021/04/28 11:40:30;;;;;;;6.65;4.95;;;20.10;42.60;;;;;;5083337;28;20546;-55
2021/04/28 11:42:56;;;;;;;9.10;5.60;;;20.20;42.30;;;;;;5099594;28;20040;-54
2021/04/28 11:45:30;;;;;;;7.30;5.47;;;20.00;42.20;;;;;;5101519;28;20035;-54
2021/04/28 11:47:55;;;;;;;8.38;5.60;;;20.30;42.10;;;;;;5079575;28;20051;-55
2021/04/28 11:50:21;;;;;;;6.57;5.38;;;20.20;40.70;;;;;;5102788;28;20032;-55
2021/04/28 11:52:47;;;;;;;9.45;5.63;;;20.00;41.30;;;;;;5101135;28;20046;-55
2021/04/28 11:55:13;;;;;;;8.38;5.45;;;20.00;41.80;;;;;;5097957;28;20044;-55
2021/04/28 11:57:38;;;;;;;6.93;5.32;;;19.90;41.90;;;;;;5077090;28;20047;-54
2021/04/28 12:00:11;;;;;;;5.70;5.13;;;20.00;42.90;;;;;;5102721;28;20032;-54
2021/04/28 12:02:38;;;;;;;9.85;6.10;;;20.20;42.70;;;;;;5098442;28;20039;-54
2021/04/28 12:05:05;;;;;;;8.77;6.20;;;20.00;41.50;;;;;;5101178;28;20044;-55
2021/04/28 12:07:32;;;;;;;9.00;5.38;;;19.80;42.60;;;;;;5102469;28;20097;-55
2021/04/28 12:09:58;;;;;;;7.20;5.30;;;20.10;41.80;;;;;;5102209;28;20122;-55
2021/04/28 12:12:29;;;;;;;8.45;5.85;;;20.00;41.40;;;;;;5106883;28;20477;-54
2021/04/28 12:15:13;;;;;;;6.72;5.45;;;19.90;41.10;;;;;;5113095;28;20051;-55
2021/04/28 12:17:47;;;;;;;6.35;5.45;;;20.10;42.00;;;;;;5099610;28;20537;-55
2021/04/28 12:20:19;;;;;;;8.02;5.40;;;19.90;41.90;;;;;;5102120;28;20032;-54
2021/04/28 12:22:46;;;;;;;7.80;5.60;;;20.00;41.40;;;;;;5104733;28;20039;-55
2021/04/28 12:25:13;;;;;;;11.85;5.40;;;19.80;41.30;;;;;;5112544;28;20061;-55
2021/04/28 12:27:41;;;;;;;11.73;6.43;;;19.80;43.70;;;;;;5112539;28;20134;-55
2021/04/28 12:30:09;;;;;;;7.35;5.50;;;19.70;42.10;;;;;;5112346;28;20047;-55
2021/04/28 12:32:36;;;;;;;11.48;5.25;;;19.30;40.50;;;;;;5102651;28;20188;-55
2021/04/28 12:35:18;;;;;;;5.15;4.63;;;19.60;42.80;;;;;;5086434;28;20044;-55
2021/04/28 12:38:13;;;;;;;6.68;5.35;;;19.70;42.80;;;;;;5100126;28;20043;-55
2021/04/28 12:41:05;;;;;;;9.23;5.45;;;19.60;43.00;;;;;;5027965;28;20088;-55
2021/04/28 12:43:33;;;;;;;13.10;5.30;;;19.90;45.60;;;;;;5029067;28;20124;-55
2021/04/28 12:46:08;;;;;;;6.50;4.60;;;20.30;44.00;;;;;;5030082;28;20069;-55
2021/04/28 12:48:58;;;;;;;11.27;5.55;;;20.20;41.10;;;;;;5028708;28;20471;-55
2021/04/28 12:51:24;;;;;;;5.40;4.78;;;19.70;43.00;;;;;;5029119;28;20038;-55
2021/04/28 12:53:50;;;;;;;7.00;5.18;;;19.70;42.50;;;;;;5029028;28;20144;-54
2021/04/28 12:56:16;;;;;;;6.70;5.75;;;20.00;43.50;;;;;;5029106;28;20491;-54
2021/04/28 12:58:48;;;;;;;7.78;5.53;;;19.80;42.50;;;;;;5028756;28;20049;-54